Time;durP1;ratioP1;P1;durP2;ratioP2;P2;SDS_P1;SDS_P2;PMS_P1;PMS_P2;Temp;Humidity;BMP_temperature;BMP_pressure;BME280_temperature;BME280_humidity;BME280_pressure;Samples;Min_cycle;Max_cycle;Signal;HPM_P1;HPM_P2
2023/06/05 00:00:35;;;;;;;2.30;1.50;;;14.70;42.80;;;14.40;45.18;98088.97;5089173;28;20513;-68
2023/06/05 00:03:04;;;;;;;2.63;1.50;;;14.70;43.00;;;14.30;44.92;98083.28;5090750;28;20599;-69
2023/06/05 00:05:31;;;;;;;2.07;1.80;;;14.60;43.00;;;14.25;45.65;98080.47;5084810;28;20494;-69
2023/06/05 00:07:58;;;;;;;1.73;1.60;;;14.60;43.10;;;14.11;45.86;98074.47;5072370;28;20567;-68
2023/06/05 00:10:25;;;;;;;2.03;1.50;;;14.40;43.20;;;14.14;45.84;98090.28;5081654;28;20464;-69
2023/06/05 00:12:52;;;;;;;2.33;1.83;;;14.40;43.10;;;14.17;45.31;98081.66;5088199;28;20455;-68
2023/06/05 00:15:20;;;;;;;2.63;1.50;;;14.40;43.00;;;13.61;45.47;98005.97;5084148;28;20813;-68
2023/06/05 00:17:47;;;;;;;2.50;1.40;;;14.40;43.10;;;14.07;45.64;98079.53;5088137;28;20542;-69
2023/06/05 00:20:15;;;;;;;2.47;1.37;;;14.40;43.10;;;13.99;45.70;98085.31;5096121;28;21530;-69
2023/06/05 00:22:44;;;;;;;2.40;1.53;;;14.20;43.00;;;13.98;45.47;98080.94;5094320;28;20602;-69
2023/06/05 00:25:11;;;;;;;1.30;1.23;;;14.20;43.10;;;13.96;45.60;98088.50;5090850;28;20455;-68
2023/06/05 00:27:40;;;;;;;1.47;1.17;;;14.20;43.00;;;13.95;45.56;98089.56;5089048;28;20464;-69
2023/06/05 00:30:09;;;;;;;1.57;1.27;;;14.20;43.10;;;13.93;45.74;98086.28;5084910;28;20456;-70
2023/06/05 00:32:36;;;;;;;1.27;1.17;;;14.20;43.20;;;13.41;45.60;98017.97;5086835;28;20484;-70
2023/06/05 00:35:05;;;;;;;1.50;1.40;;;14.10;43.30;;;13.95;45.53;98086.84;5086849;28;20451;-69
2023/06/05 00:37:34;;;;;;;2.53;1.60;;;14.20;43.10;;;13.85;45.71;98080.09;5080159;28;20456;-68
2023/06/05 00:40:01;;;;;;;2.50;1.57;;;14.10;43.10;;;13.80;45.91;98090.88;5083821;28;20451;-69
2023/06/05 00:42:29;;;;;;;2.33;1.50;;;14.00;43.10;;;13.80;45.93;98074.56;5087544;28;20500;-70
2023/06/05 00:44:56;;;;;;;2.30;1.30;;;14.00;43.10;;;13.76;45.32;98077.97;5085107;28;20458;-70
2023/06/05 00:47:23;;;;;;;1.53;1.10;;;14.00;43.00;;;13.66;45.64;98078.56;5082487;28;20451;-69
2023/06/05 00:49:51;;;;;;;4.30;1.33;;;13.90;43.10;;;13.73;45.54;98077.41;5074316;28;20467;-69
2023/06/05 00:52:18;;;;;;;3.17;1.73;;;13.90;43.10;;;13.70;45.40;98080.59;5081193;28;20462;-69
2023/06/05 00:54:47;;;;;;;1.37;1.27;;;13.80;43.00;;;13.69;45.75;98073.50;5105331;27;20457;-68
2023/06/05 00:57:14;;;;;;;1.50;1.40;;;13.90;43.10;;;13.75;45.61;98082.59;5084814;28;20455;-69
2023/06/05 00:59:44;;;;;;;1.70;1.40;;;13.90;43.00;;;13.71;45.61;98086.81;5084242;28;21015;-69
2023/06/05 01:02:13;;;;;;;1.73;1.63;;;13.90;43.00;;;13.74;45.31;98086.38;5081029;28;20875;-68
2023/06/05 01:04:43;;;;;;;2.27;1.30;;;14.00;43.00;;;13.62;45.81;98080.09;5093649;28;20554;-68
2023/06/05 01:07:14;;;;;;;2.10;1.50;;;13.90;43.00;;;13.68;45.84;98088.13;5088498;28;20511;-69
2023/06/05 01:09:41;;;;;;;2.00;1.47;;;13.90;43.00;;;13.48;46.03;98080.31;5079674;28;20563;-68
2023/06/05 01:12:19;;;;;;;1.37;1.27;;;13.70;43.00;;;13.46;46.08;98077.00;5091131;28;20911;-68
2023/06/05 01:14:49;;;;;;;1.33;1.23;;;13.70;43.20;;;13.56;45.76;98082.66;5085202;28;20538;-68
2023/06/05 01:17:19;;;;;;;1.73;1.40;;;13.70;42.90;;;13.38;45.56;98069.16;5075298;28;20520;-69
2023/06/05 01:19:49;;;;;;;1.67;1.50;;;13.70;42.80;;;13.25;45.47;98038.44;5085471;28;20491;-67
2023/06/05 01:22:16;;;;;;;2.30;1.40;;;13.80;42.80;;;13.52;45.45;98088.81;5087528;28;20499;-69
2023/06/05 01:24:47;;;;;;;1.47;1.03;;;13.70;42.70;;;13.55;45.29;98082.94;5089475;28;20697;-67
2023/06/05 01:27:18;;;;;;;2.00;1.50;;;13.80;42.80;;;13.54;45.18;98087.50;5083788;28;21693;-68
2023/06/05 01:29:56;;;;;;;2.10;1.53;;;13.80;42.70;;;13.51;45.09;98082.56;5072990;28;20986;-68
2023/06/05 01:32:31;;;;;;;3.83;1.80;;;13.80;42.70;;;13.54;45.09;98075.84;5077713;28;20469;-69
2023/06/05 01:34:59;;;;;;;1.30;1.20;;;13.80;42.70;;;13.55;44.85;98078.31;5076602;28;20457;-67
2023/06/05 01:37:28;;;;;;;1.43;1.33;;;13.80;42.50;;;13.47;45.08;98073.22;5077372;28;20514;-69
2023/06/05 01:39:58;;;;;;;2.13;1.30;;;13.80;42.60;;;13.47;45.18;98070.53;5081367;28;20953;-68
2023/06/05 01:42:25;;;;;;;1.60;1.50;;;13.70;42.40;;;13.47;45.39;98075.94;5082423;28;21189;-68
2023/06/05 01:44:53;;;;;;;1.37;1.27;;;13.70;42.60;;;13.40;45.44;98080.59;5081635;28;20458;-68
2023/06/05 01:47:21;;;;;;;1.30;1.20;;;13.60;42.50;;;13.31;45.26;98067.38;5086977;28;20470;-69
2023/06/05 01:49:50;;;;;;;1.47;1.17;;;13.60;42.60;;;13.30;45.39;98070.31;5092282;28;20451;-68
2023/06/05 01:52:17;;;;;;;5.40;1.73;;;13.60;42.50;;;13.23;45.22;98065.00;5088790;28;20482;-68
2023/06/05 01:54:46;;;;;;;1.77;1.37;;;13.60;42.50;;;13.11;45.41;98078.53;5075146;28;20459;-68
2023/06/05 01:57:15;;;;;;;1.60;1.50;;;13.40;42.50;;;12.92;45.90;98069.59;5080630;28;20458;-68
2023/06/05 01:59:43;;;;;;;1.50;1.40;;;13.30;42.70;;;12.95;46.14;98071.84;5089740;28;20461;-68
2023/06/05 02:02:11;;;;;;;2.60;1.60;;;13.20;42.80;;;12.87;46.37;98066.75;5100598;28;20496;-68
2023/06/05 02:04:39;;;;;;;1.43;1.20;;;13.10;42.90;;;12.73;46.63;98069.63;5088751;28;20455;-67
2023/06/05 02:07:07;;;;;;;1.77;1.40;;;13.00;42.90;;;12.70;46.48;98067.41;5086322;28;20466;-69
2023/06/05 02:09:34;;;;;;;1.60;1.50;;;12.90;43.00;;;12.69;47.00;98068.44;5080844;28;20531;-69
2023/06/05 02:12:03;;;;;;;2.00;1.50;;;12.90;43.20;;;12.54;47.23;98078.84;5089925;28;20522;-69
2023/06/05 02:14:35;;;;;;;2.00;1.30;;;12.80;43.20;;;12.60;46.97;98067.09;5086787;28;20455;-70
2023/06/05 02:17:04;;;;;;;2.00;1.33;;;12.80;43.20;;;12.53;47.05;98056.34;5088970;28;20515;-69
2023/06/05 02:19:31;;;;;;;2.30;1.50;;;12.80;43.20;;;12.42;47.72;98076.06;5092229;28;20450;-69
2023/06/05 02:21:58;;;;;;;1.67;1.57;;;12.70;43.40;;;12.59;46.67;98051.88;5085342;28;20459;-68
2023/06/05 02:24:26;;;;;;;2.07;1.30;;;12.80;43.20;;;12.75;46.43;98070.25;5093331;28;20482;-69
2023/06/05 02:26:53;;;;;;;1.80;1.40;;;12.90;43.20;;;12.65;46.51;98061.81;5093130;28;21272;-68
2023/06/05 02:29:21;;;;;;;1.60;1.40;;;12.90;43.10;;;11.79;46.39;97938.00;5081277;28;20462;-68
2023/06/05 02:31:49;;;;;;;2.27;1.33;;;12.80;43.10;;;12.56;46.92;98055.06;5086642;28;20572;-69
2023/06/05 02:34:17;;;;;;;2.10;1.30;;;12.80;43.10;;;12.72;46.32;98065.28;5093109;28;20490;-69
2023/06/05 02:36:45;;;;;;;1.20;1.10;;;12.80;43.10;;;12.71;46.45;98066.34;5086350;28;20546;-69
2023/06/05 02:39:13;;;;;;;3.23;1.57;;;12.90;43.10;;;12.63;46.69;98063.13;5097965;28;20800;-67
2023/06/05 02:41:40;;;;;;;2.10;1.47;;;12.90;43.00;;;12.43;47.18;98066.88;5086246;28;20466;-69
2023/06/05 02:44:07;;;;;;;2.60;1.40;;;12.70;43.20;;;12.37;47.37;98060.50;5082297;28;20475;-69
2023/06/05 02:46:34;;;;;;;1.30;1.20;;;12.50;43.30;;;12.30;47.54;98066.00;5077385;28;20463;-68
2023/06/05 02:49:03;;;;;;;2.70;1.80;;;12.50;43.30;;;12.26;47.36;98062.06;5084440;28;20487;-68
2023/06/05 02:51:30;;;;;;;2.03;1.60;;;12.50;43.50;;;12.53;47.19;98055.53;5078211;28;20983;-68
2023/06/05 02:53:58;;;;;;;1.50;1.30;;;12.70;43.60;;;12.52;46.99;98060.09;5084115;28;20460;-70
2023/06/05 02:56:26;;;;;;;2.30;1.67;;;12.70;43.30;;;12.42;47.30;98059.78;5092955;28;20476;-69
2023/06/05 02:58:56;;;;;;;1.97;1.40;;;12.70;43.30;;;12.50;47.32;98045.13;5084504;28;20476;-68
2023/06/05 03:01:25;;;;;;;1.70;1.60;;;12.70;43.50;;;12.56;46.79;98049.63;5077565;28;20551;-69
2023/06/05 03:03:53;;;;;;;1.90;1.33;;;12.70;43.40;;;12.13;47.56;98013.44;5082506;28;20483;-69
2023/06/05 03:06:27;;;;;;;2.30;1.70;;;12.60;43.40;;;12.43;47.59;98062.28;5078158;28;21474;-68
2023/06/05 03:08:55;;;;;;;1.40;1.30;;;12.60;43.60;;;12.33;47.85;98056.56;5079954;28;20455;-68
2023/06/05 03:11:24;;;;;;;2.07;1.43;;;12.50;43.70;;;12.39;47.60;98057.53;5081431;28;20455;-68
2023/06/05 03:13:52;;;;;;;1.70;1.60;;;12.60;43.70;;;12.29;48.04;98055.38;5084765;28;20452;-68
2023/06/05 03:16:19;;;;;;;1.90;1.50;;;12.50;43.70;;;12.38;48.25;98062.16;5074671;28;20561;-69
2023/06/05 03:18:50;;;;;;;5.30;1.70;;;12.50;44.10;;;12.36;48.05;98061.56;5081490;28;20454;-68
2023/06/05 03:21:17;;;;;;;2.23;1.73;;;12.50;44.10;;;12.50;47.40;98055.94;5083141;28;20523;-68
2023/06/05 03:23:45;;;;;;;3.77;1.57;;;12.60;44.00;;;12.43;48.00;98066.88;5087521;28;20480;-69
2023/06/05 03:26:13;;;;;;;2.17;1.70;;;12.60;43.90;;;12.39;47.76;98055.69;5087433;28;20544;-69
2023/06/05 03:28:41;;;;;;;1.80;1.60;;;12.60;44.00;;;12.57;47.78;98056.72;5088971;28;20451;-67
2023/06/05 03:31:09;;;;;;;2.00;1.80;;;12.70;44.10;;;12.50;47.34;98067.63;5092047;28;20459;-69
2023/06/05 03:33:36;;;;;;;2.27;1.40;;;12.70;43.80;;;12.62;47.55;98059.56;5076622;28;20558;-69
2023/06/05 03:36:05;;;;;;;1.90;1.27;;;12.80;43.90;;;12.47;47.73;98068.09;5067130;28;20509;-71
2023/06/05 03:38:32;;;;;;;1.73;1.30;;;12.70;43.80;;;12.62;47.95;98062.28;5080078;28;20953;-68
2023/06/05 03:41:00;;;;;;;1.33;1.20;;;12.80;44.10;;;12.53;47.47;98066.38;5076640;28;20527;-69
2023/06/05 03:43:27;;;;;;;4.70;1.60;;;12.80;44.00;;;12.62;47.74;98070.41;5096043;28;20490;-69
2023/06/05 03:45:55;;;;;;;2.10;1.57;;;12.80;44.00;;;12.58;47.90;98071.91;5082535;28;20895;-69
2023/06/05 03:48:22;;;;;;;1.80;1.50;;;12.80;44.10;;;12.64;47.72;98072.91;5088835;28;20455;-69
2023/06/05 03:50:51;;;;;;;2.87;1.40;;;12.80;44.00;;;12.82;47.43;98072.88;5088597;28;20520;-69
2023/06/05 03:53:18;;;;;;;2.20;1.83;;;13.00;44.20;;;12.81;47.30;98068.50;5085592;28;20969;-70
2023/06/05 03:55:46;;;;;;;1.73;1.57;;;13.00;44.00;;;12.91;47.46;98073.38;5083071;28;20458;-70
2023/06/05 03:58:16;;;;;;;1.57;1.30;;;13.10;44.10;;;12.89;47.35;98072.78;5085677;28;20466;-69
2023/06/05 04:00:45;;;;;;;1.53;1.17;;;13.10;44.20;;;13.12;46.98;98076.66;5080930;28;20487;-70
2023/06/05 04:03:13;;;;;;;1.70;1.47;;;13.30;44.20;;;13.53;46.49;98075.00;5080774;28;21292;-68
2023/06/05 04:05:42;;;;;;;2.50;1.90;;;13.70;44.00;;;14.21;45.12;98076.59;5079265;28;20498;-70
2023/06/05 04:08:11;;;;;;;3.40;1.40;;;14.40;43.90;;;15.13;42.75;98076.84;5083491;28;20970;-68
2023/06/05 04:10:39;;;;;;;2.87;0.90;;;15.30;43.10;;;15.73;41.39;98066.44;5078358;28;20469;-69
2023/06/05 04:13:06;;;;;;;1.47;1.10;;;16.20;42.50;;;16.55;40.43;98075.00;5077995;28;20459;-70
2023/06/05 04:15:35;;;;;;;1.80;1.70;;;17.00;42.00;;;17.31;38.92;98075.31;5075530;28;20466;-67
2023/06/05 04:18:03;;;;;;;1.47;1.27;;;17.80;41.60;;;17.93;37.37;98075.00;5086218;28;20459;-68
2023/06/05 04:20:31;;;;;;;3.80;1.80;;;18.50;40.90;;;18.02;36.95;98075.31;5079353;28;21051;-69
2023/06/05 04:22:58;;;;;;;1.80;1.57;;;18.90;40.50;;;17.78;36.86;98010.13;5098143;28;20476;-68
2023/06/05 04:25:28;;;;;;;2.07;1.30;;;19.10;40.40;;;18.59;36.11;98078.41;5086324;28;21531;-69
2023/06/05 04:27:58;;;;;;;2.83;1.90;;;19.50;40.20;;;18.41;36.30;98084.06;5078180;28;20513;-67
2023/06/05 04:30:25;;;;;;;1.77;1.50;;;19.30;40.10;;;18.80;35.33;98073.84;5083681;28;20448;-69
2023/06/05 04:32:55;;;;;;;3.17;1.50;;;19.60;40.00;;;18.74;36.04;98026.50;5080168;28;21033;-68
2023/06/05 04:35:22;;;;;;;2.50;1.97;;;19.90;40.20;;;20.04;33.92;98073.25;5086401;28;20499;-69
2023/06/05 04:37:50;;;;;;;1.80;1.53;;;20.50;39.80;;;19.07;34.66;98075.63;5087374;28;20456;-69
2023/06/05 04:40:19;;;;;;;2.70;1.47;;;20.30;39.00;;;18.66;35.58;98073.53;5083585;28;20463;-70
2023/06/05 04:42:47;;;;;;;3.73;1.70;;;19.90;39.50;;;19.19;34.89;98073.47;5083259;28;20548;-70
2023/06/05 04:45:16;;;;;;;2.13;1.50;;;20.00;39.70;;;19.80;33.92;98066.38;5101314;28;20491;-69
2023/06/05 04:47:44;;;;;;;2.63;1.70;;;20.50;39.60;;;19.78;34.69;98070.50;5088151;28;20456;-70
2023/06/05 04:50:25;;;;;;;1.80;1.50;;;20.90;39.80;;;20.54;32.90;98062.41;5075211;28;21029;-69
2023/06/05 04:52:54;;;;;;;3.47;1.50;;;21.20;39.30;;;20.50;32.86;98042.97;5079072;28;20468;-69
2023/06/05 04:55:21;;;;;;;1.90;1.30;;;21.70;39.10;;;19.88;34.18;98048.56;5083666;28;20541;-69
2023/06/05 04:57:49;;;;;;;1.90;1.70;;;21.40;39.10;;;21.11;32.60;98069.63;5091452;28;20459;-70
2023/06/05 05:00:16;;;;;;;2.20;1.83;;;21.80;39.20;;;21.19;31.80;98072.56;5082751;28;21396;-71
2023/06/05 05:02:44;;;;;;;2.40;1.90;;;22.20;38.70;;;21.46;31.62;98067.72;5081252;28;20461;-71
2023/06/05 05:05:15;;;;;;;2.10;1.90;;;22.20;38.90;;;21.84;31.60;98073.53;5080035;28;20472;-70
2023/06/05 05:07:43;;;;;;;2.10;1.60;;;22.60;38.90;;;22.29;30.67;98061.50;5092320;28;20456;-71
2023/06/05 05:10:11;;;;;;;2.60;1.53;;;22.90;39.00;;;22.55;30.32;98081.38;5076238;28;20454;-71
2023/06/05 05:12:39;;;;;;;2.07;1.83;;;23.40;38.90;;;21.64;31.74;98079.97;5073524;28;21014;-71
2023/06/05 05:15:08;;;;;;;3.40;1.63;;;23.30;38.60;;;21.14;31.45;98080.03;5082450;28;20456;-70
2023/06/05 05:17:35;;;;;;;1.97;1.50;;;22.70;38.00;;;20.52;33.03;98067.34;5085933;28;20488;-78
2023/06/05 05:20:06;;;;;;;1.53;1.40;;;21.80;38.60;;;21.09;32.48;98070.72;5078549;28;20470;-70
2023/06/05 05:22:35;;;;;;;1.80;1.53;;;22.10;39.00;;;20.86;32.79;98061.22;5093663;27;20457;-70
2023/06/05 05:25:02;;;;;;;2.10;1.50;;;22.00;38.90;;;20.84;32.68;98065.34;5090341;28;21003;-71
2023/06/05 05:27:29;;;;;;;1.97;1.60;;;22.20;38.90;;;20.80;33.23;98070.53;5088253;28;20450;-70
2023/06/05 05:29:56;;;;;;;4.40;1.37;;;21.90;39.00;;;20.52;33.31;98078.34;5095051;28;20468;-70
2023/06/05 05:32:23;;;;;;;1.60;1.50;;;21.50;39.10;;;20.93;32.43;98067.22;5080776;28;20470;-71
2023/06/05 05:34:52;;;;;;;1.80;1.40;;;21.70;39.10;;;20.84;33.14;98068.91;5099629;28;20451;-70
2023/06/05 05:37:19;;;;;;;1.80;1.30;;;21.70;39.10;;;21.91;31.76;98067.66;5081376;28;20481;-70
2023/06/05 05:39:47;;;;;;;1.80;1.60;;;22.30;39.40;;;21.21;32.08;98075.84;5084604;28;20489;-71
2023/06/05 05:42:15;;;;;;;1.97;1.50;;;22.50;38.50;;;22.00;31.40;98076.94;5089395;28;20440;-70
2023/06/05 05:44:43;;;;;;;1.33;1.23;;;22.60;39.10;;;22.28;30.46;98077.22;5095104;27;20491;-72
2023/06/05 05:47:11;;;;;;;2.10;1.87;;;23.00;38.60;;;21.64;31.72;98083.53;5078929;28;20554;-73
2023/06/05 05:49:38;;;;;;;1.90;1.50;;;22.60;38.60;;;21.66;31.75;98017.31;5089975;28;20974;-73
2023/06/05 05:52:06;;;;;;;1.47;1.37;;;22.90;39.00;;;21.67;32.47;98090.41;5112791;27;20471;-73
2023/06/05 05:54:33;;;;;;;1.90;1.70;;;22.60;39.10;;;20.32;34.28;98087.44;5075066;28;20453;-71
2023/06/05 05:57:02;;;;;;;2.70;1.47;;;21.60;39.40;;;19.91;35.57;98091.03;5069989;28;20605;-72
2023/06/05 05:59:30;;;;;;;1.60;1.50;;;20.90;39.90;;;19.64;36.15;98083.94;5078379;28;20522;-72
2023/06/05 06:01:58;;;;;;;2.13;1.23;;;20.40;40.30;;;20.06;35.62;98082.81;5076991;28;21132;-71
2023/06/05 06:04:26;;;;;;;3.07;1.40;;;20.50;40.60;;;19.35;36.74;98041.44;5071795;28;20472;-71
2023/06/05 06:06:56;;;;;;;3.27;1.77;;;20.60;40.90;;;20.90;35.18;98078.78;5082649;28;20502;-71
2023/06/05 06:09:24;;;;;;;1.77;1.20;;;21.30;41.20;;;22.06;32.46;98080.47;5086932;28;20478;-71
2023/06/05 06:11:55;;;;;;;1.60;1.50;;;22.40;40.00;;;22.11;31.41;98065.84;5080904;28;20476;-71
2023/06/05 06:14:26;;;;;;;1.57;1.30;;;22.90;39.30;;;21.43;32.30;98066.34;5073519;28;20473;-73
2023/06/05 06:16:54;;;;;;;1.83;1.67;;;22.70;39.00;;;21.70;32.44;98072.53;5075505;28;20583;-71
2023/06/05 06:19:23;;;;;;;1.30;1.20;;;22.80;39.20;;;21.63;32.29;98078.31;5075400;28;20469;-71
2023/06/05 06:21:51;;;;;;;2.20;1.40;;;22.60;39.20;;;20.62;33.54;98071.97;5084065;28;20612;-72
2023/06/05 06:24:21;;;;;;;3.80;1.90;;;21.80;39.00;;;20.23;34.60;98077.03;5084470;28;21030;-72
2023/06/05 06:26:48;;;;;;;1.50;1.40;;;21.30;39.80;;;20.07;35.73;98078.97;5098250;28;20451;-74
2023/06/05 06:29:19;;;;;;;5.23;1.83;;;20.90;40.10;;;19.20;36.83;98086.06;5085242;28;20457;-79
2023/06/05 06:31:49;;;;;;;3.60;1.90;;;20.20;40.50;;;18.57;38.40;98073.19;5082712;28;20463;-71
2023/06/05 06:34:16;;;;;;;2.97;1.87;;;19.30;40.90;;;18.28;39.33;98079.09;5095287;28;20493;-69
2023/06/05 06:36:44;;;;;;;2.10;1.73;;;18.80;41.50;;;18.47;39.39;98087.66;5080828;28;20464;-70
2023/06/05 06:39:11;;;;;;;2.20;1.90;;;18.80;42.00;;;18.45;39.87;98084.38;5078008;28;20499;-70
2023/06/05 06:41:38;;;;;;;3.47;1.70;;;18.80;42.30;;;18.54;40.11;98084.69;5077167;28;20613;-72
2023/06/05 06:44:06;;;;;;;2.40;2.13;;;18.80;42.60;;;18.31;40.69;98077.72;5083979;28;20479;-70
2023/06/05 06:46:34;;;;;;;2.17;1.83;;;18.70;42.80;;;18.44;40.99;98082.72;5096334;28;20460;-70
2023/06/05 06:49:03;;;;;;;2.10;2.00;;;18.70;43.30;;;18.29;41.01;98026.06;5082348;28;21038;-69
2023/06/05 06:51:32;;;;;;;2.43;2.20;;;18.90;43.50;;;18.73;41.17;98084.22;5070724;28;20991;-71
2023/06/05 06:53:59;;;;;;;1.93;1.70;;;18.90;43.60;;;18.82;41.27;98097.13;5081942;28;21067;-70
2023/06/05 06:56:27;;;;;;;2.37;2.17;;;19.00;43.80;;;19.06;41.11;98095.88;5076146;28;20512;-75
2023/06/05 06:58:55;;;;;;;2.43;2.00;;;19.20;44.00;;;19.09;41.37;98087.13;5070119;28;20544;-71
2023/06/05 07:01:23;;;;;;;3.10;2.47;;;19.30;44.20;;;19.09;41.22;98087.13;5076616;28;20485;-70
2023/06/05 07:03:51;;;;;;;3.30;2.40;;;19.30;44.10;;;19.07;41.39;98075.63;5095604;28;20455;-71
2023/06/05 07:06:21;;;;;;;2.07;1.73;;;19.40;44.20;;;19.33;41.11;98078.41;5086338;28;20478;-73
2023/06/05 07:08:49;;;;;;;2.40;1.60;;;19.50;44.30;;;19.25;41.43;98075.09;5079885;28;20461;-71
2023/06/05 07:11:16;;;;;;;3.87;2.20;;;19.50;44.40;;;19.40;42.09;98068.81;5086323;28;20478;-71
2023/06/05 07:13:43;;;;;;;3.00;2.67;;;19.60;44.80;;;19.21;41.65;98012.94;5083329;28;20450;-72
2023/06/05 07:16:10;;;;;;;2.90;2.37;;;19.70;45.00;;;19.69;42.06;98075.69;5079948;28;21053;-70
2023/06/05 07:18:38;;;;;;;2.90;2.27;;;19.80;45.20;;;19.84;41.96;98068.56;5097597;28;20460;-70
2023/06/05 07:21:05;;;;;;;3.00;2.60;;;20.00;45.40;;;19.72;42.23;98072.41;5076924;28;20488;-71
2023/06/05 07:23:34;;;;;;;4.27;2.57;;;20.00;45.20;;;19.93;42.22;98066.94;5081115;28;20467;-70
2023/06/05 07:26:01;;;;;;;3.37;2.40;;;20.10;45.60;;;20.19;41.53;98064.16;5076883;28;20466;-70
2023/06/05 07:28:29;;;;;;;3.40;3.10;;;20.30;45.50;;;20.20;41.33;98060.31;5097897;28;20513;-71
2023/06/05 07:30:56;;;;;;;3.50;2.67;;;20.40;45.50;;;19.92;41.79;98004.97;5080187;28;21042;-71
2023/06/05 07:33:24;;;;;;;2.83;2.60;;;20.50;45.50;;;20.23;41.29;98062.50;5088291;28;21308;-71
2023/06/05 07:35:51;;;;;;;2.43;2.10;;;20.50;45.30;;;20.09;41.22;98016.47;5081916;28;20545;-71
2023/06/05 07:38:18;;;;;;;2.80;2.60;;;20.60;45.40;;;20.48;41.43;98066.28;5084439;28;20496;-71
2023/06/05 07:40:47;;;;;;;3.30;2.57;;;20.60;45.60;;;20.54;40.96;98062.41;5081535;28;21002;-72
2023/06/05 07:43:15;;;;;;;3.53;3.00;;;20.70;45.40;;;20.62;40.73;98050.88;5082384;28;20457;-72
2023/06/05 07:45:42;;;;;;;2.50;2.30;;;20.80;45.60;;;20.69;40.63;98063.44;5080654;28;21003;-71
2023/06/05 07:48:10;;;;;;;3.77;2.50;;;20.90;45.40;;;20.75;40.80;98043.13;5081999;28;20519;-70
2023/06/05 07:50:37;;;;;;;4.57;2.70;;;20.90;45.20;;;21.11;40.53;98064.91;5081947;28;20451;-70
2023/06/05 07:53:04;;;;;;;2.97;2.43;;;21.10;45.50;;;21.11;40.35;98062.19;5076681;28;20459;-72
2023/06/05 07:55:32;;;;;;;2.50;2.30;;;21.20;45.40;;;21.15;39.74;98057.75;5072776;28;20461;-71
2023/06/05 07:58:00;;;;;;;3.37;2.60;;;21.30;44.90;;;20.98;39.90;98047.16;5078485;28;21098;-71
2023/06/05 08:00:28;;;;;;;3.77;2.60;;;21.20;45.00;;;21.15;39.79;98056.94;5081445;28;20461;-70
2023/06/05 08:02:57;;;;;;;2.77;2.57;;;21.30;45.10;;;21.18;39.78;98056.38;5085052;28;20453;-71
2023/06/05 08:05:24;;;;;;;3.00;2.20;;;21.40;45.20;;;21.54;39.29;98056.13;5080639;28;20476;-70
2023/06/05 08:07:54;;;;;;;3.77;2.80;;;21.60;45.30;;;21.51;39.49;98057.53;5083967;28;20460;-70
2023/06/05 08:10:21;;;;;;;5.37;2.97;;;21.60;45.10;;;21.45;39.65;98052.34;5080380;28;20465;-71
2023/06/05 08:12:49;;;;;;;3.20;2.90;;;21.60;45.20;;;21.18;40.07;98048.97;5075918;28;20465;-69
2023/06/05 08:15:17;;;;;;;3.07;2.63;;;21.50;45.10;;;21.05;40.58;98049.59;5080581;28;20956;-78
2023/06/05 08:17:45;;;;;;;2.60;2.40;;;21.40;45.30;;;21.20;40.10;98051.41;5077243;28;20464;-71
2023/06/05 08:20:13;;;;;;;2.80;2.60;;;21.40;45.40;;;21.14;39.83;98056.09;5081884;28;21233;-71
2023/06/05 08:22:42;;;;;;;2.90;2.57;;;21.40;45.00;;;21.35;40.00;98056.00;5073837;28;21105;-71
2023/06/05 08:25:10;;;;;;;3.00;2.70;;;21.50;45.40;;;21.50;40.19;98046.81;5076701;28;20467;-69
2023/06/05 08:27:37;;;;;;;2.63;2.43;;;21.50;45.50;;;21.38;40.39;98044.44;5077453;28;20533;-71
2023/06/05 08:30:06;;;;;;;2.70;2.50;;;21.60;45.60;;;21.17;40.62;98044.56;5085691;28;20866;-71
2023/06/05 08:32:34;;;;;;;3.30;3.00;;;21.40;45.50;;;21.18;40.59;98040.72;5087503;28;21107;-73
2023/06/05 08:35:02;;;;;;;3.60;3.13;;;21.40;45.80;;;21.39;40.86;98057.06;5090938;28;20493;-69
2023/06/05 08:37:29;;;;;;;3.00;2.70;;;21.50;45.90;;;21.15;41.10;98043.22;5074141;28;20908;-70
2023/06/05 08:40:00;;;;;;;3.03;2.73;;;21.40;45.80;;;21.37;40.92;98042.78;5086525;28;20449;-72
2023/06/05 08:42:28;;;;;;;2.90;2.60;;;21.50;46.40;;;21.51;40.83;98040.19;5081289;28;20494;-73
2023/06/05 08:44:56;;;;;;;3.43;3.13;;;21.60;46.20;;;21.69;40.56;98041.47;5082373;28;20469;-73
2023/06/05 08:47:27;;;;;;;3.07;2.87;;;21.70;46.20;;;21.59;41.34;98049.75;5072773;28;20481;-73
2023/06/05 08:49:57;;;;;;;4.33;2.77;;;21.70;46.20;;;21.59;41.10;98038.75;5070141;28;20470;-71
2023/06/05 08:52:29;;;;;;;5.40;2.87;;;21.70;46.40;;;21.78;41.32;98042.50;5073177;28;22622;-70
2023/06/05 08:54:59;;;;;;;3.43;3.00;;;21.80;46.80;;;21.82;41.37;98028.16;5088905;28;20453;-70
2023/06/05 08:57:28;;;;;;;3.30;2.97;;;21.90;46.80;;;22.03;41.20;98037.03;5079206;28;20466;-73
2023/06/05 08:59:56;;;;;;;5.87;3.73;;;22.00;46.80;;;21.79;41.75;98022.13;5077428;28;20458;-69
2023/06/05 09:02:23;;;;;;;5.07;4.07;;;22.00;47.10;;;20.97;42.53;97984.28;5080215;28;20464;-72
2023/06/05 09:04:51;;;;;;;3.80;2.90;;;21.70;46.90;;;21.61;42.53;98036.53;5075719;28;20474;-72
2023/06/05 09:07:19;;;;;;;3.70;3.40;;;21.70;47.60;;;21.77;42.11;98040.03;5069052;28;20868;-72
2023/06/05 09:09:46;;;;;;;3.93;3.20;;;21.90;47.30;;;21.69;42.02;97991.97;5089057;28;20473;-74
2023/06/05 09:12:14;;;;;;;4.63;3.60;;;22.10;47.50;;;22.18;41.38;98041.53;5083279;28;20469;-69
2023/06/05 09:14:41;;;;;;;5.20;3.77;;;22.30;47.30;;;22.23;41.21;98030.50;5072063;28;20560;-71
2023/06/05 09:17:14;;;;;;;3.87;3.40;;;22.40;47.20;;;22.38;41.19;98032.25;5071486;28;20515;-73
2023/06/05 09:19:45;;;;;;;3.43;3.13;;;22.40;47.30;;;22.66;40.19;98034.41;5081552;28;20567;-72
2023/06/05 09:22:14;;;;;;;4.00;3.60;;;22.60;47.00;;;22.75;40.23;98032.66;5079727;28;20460;-71
2023/06/05 09:24:43;;;;;;;3.60;3.30;;;22.80;47.00;;;22.19;40.98;98035.75;5080273;28;20989;-72
2023/06/05 09:27:12;;;;;;;3.87;3.30;;;22.60;46.90;;;21.97;41.43;98022.50;5086837;28;20487;-72
2023/06/05 09:29:43;;;;;;;7.40;4.07;;;22.20;47.00;;;22.14;41.62;98024.81;5099957;28;20863;-69
2023/06/05 09:32:17;;;;;;;3.90;3.47;;;22.30;47.30;;;22.17;41.41;98021.47;5074152;28;20453;-72
2023/06/05 09:34:45;;;;;;;3.97;3.67;;;22.30;47.20;;;22.52;40.82;98031.56;5085563;28;20471;-72
2023/06/05 09:37:14;;;;;;;4.67;4.07;;;22.50;47.20;;;22.64;41.04;98021.78;5086191;28;20456;-71
2023/06/05 09:39:44;;;;;;;5.33;4.33;;;22.60;47.30;;;22.68;40.54;98012.94;5078806;28;20510;-73
2023/06/05 09:42:11;;;;;;;3.57;3.27;;;22.70;47.10;;;22.79;40.26;98019.94;5082462;28;20520;-70
2023/06/05 09:44:39;;;;;;;3.80;3.50;;;22.80;46.90;;;22.18;41.27;98017.63;5076929;28;20451;-69
2023/06/05 09:47:08;;;;;;;3.90;3.50;;;22.50;46.90;;;22.55;40.74;98029.06;5081679;28;20520;-68
2023/06/05 09:49:48;;;;;;;4.03;3.63;;;22.60;47.10;;;22.60;40.62;98017.97;5087278;28;20445;-73
2023/06/05 09:52:16;;;;;;;3.43;2.93;;;22.60;47.00;;;22.29;40.62;97979.78;5079104;28;20531;-72
2023/06/05 09:54:46;;;;;;;4.60;3.83;;;22.70;46.90;;;22.69;40.43;98006.31;5067588;28;20456;-73
2023/06/05 09:57:15;;;;;;;3.70;3.40;;;22.70;47.00;;;22.99;40.21;98012.53;5077051;28;20456;-73
2023/06/05 09:59:51;;;;;;;3.37;3.07;;;22.90;47.20;;;23.07;39.28;98009.06;5078972;28;20454;-74
2023/06/05 10:02:20;;;;;;;4.17;3.70;;;23.20;46.90;;;23.12;39.54;98006.22;5086559;28;20973;-72
2023/06/05 10:04:50;;;;;;;4.47;3.17;;;23.20;46.60;;;23.34;39.13;98011.16;5080918;28;20465;-72
2023/06/05 10:07:17;;;;;;;4.57;3.77;;;23.30;46.80;;;23.39;39.44;97999.25;5084620;28;20456;-73
2023/06/05 10:09:50;;;;;;;3.97;3.40;;;23.40;46.80;;;23.17;39.60;98011.69;5102892;27;20461;-73
2023/06/05 10:12:17;;;;;;;3.90;3.60;;;23.40;46.60;;;23.08;39.61;98004.41;5092113;28;20464;-69
2023/06/05 10:14:45;;;;;;;3.70;3.40;;;23.20;46.70;;;23.59;38.73;97998.09;5079548;28;20836;-71
2023/06/05 10:17:14;;;;;;;3.40;3.10;;;23.50;46.60;;;23.68;38.39;97992.69;5092565;28;20458;-72
2023/06/05 10:19:43;;;;;;;4.20;3.73;;;23.80;46.60;;;24.02;38.07;97991.56;5089588;28;20452;-70
2023/06/05 10:22:11;;;;;;;3.93;3.57;;;24.00;46.50;;;24.24;37.74;97984.53;5076379;28;20806;-70
2023/06/05 10:24:45;;;;;;;3.70;3.37;;;24.20;46.40;;;24.23;37.93;97991.16;5086192;28;20454;-70